createdAt,value
2018-11-23T00:00:25.864Z,178.20
2018-11-23T00:02:55.034Z,182.27
2018-11-23T00:05:23.523Z,176.33
2018-11-23T00:07:52.816Z,178.47
2018-11-23T00:10:22.581Z,177.50
2018-11-23T00:12:51.131Z,187.20
2018-11-23T00:15:21.479Z,183.20
2018-11-23T00:17:50.067Z,187.47
2018-11-23T00:20:20.101Z,193.03
2018-11-23T00:22:48.604Z,187.63
2018-11-23T00:25:18.567Z,179.30
2018-11-23T00:27:47.053Z,179.43
2018-11-23T00:30:17.066Z,176.20
2018-11-23T00:32:46.096Z,181.97
2018-11-23T00:35:16.690Z,177.43
2018-11-23T00:37:45.602Z,174.83
2018-11-23T00:40:19.036Z,175.37
2018-11-23T00:42:47.782Z,173.63
2018-11-23T00:45:16.347Z,165.37
2018-11-23T00:47:45.615Z,174.87
2018-11-23T00:50:15.510Z,179.90
2018-11-23T00:52:44.712Z,174.60
2018-11-23T00:55:14.720Z,169.67
2018-11-23T00:57:43.273Z,169.87
2018-11-23T01:00:14.336Z,167.63
2018-11-23T01:02:42.958Z,176.00
2018-11-23T01:05:13.163Z,190.57
2018-11-23T01:07:42.365Z,179.53
2018-11-23T01:10:12.484Z,172.70
2018-11-23T01:12:41.374Z,182.87
2018-11-23T01:15:10.731Z,176.40
2018-11-23T01:17:39.428Z,167.57
2018-11-23T01:20:11.401Z,188.07
2018-11-23T01:22:40.611Z,176.00
2018-11-23T01:25:10.624Z,174.33
2018-11-23T01:27:40.040Z,162.03
2018-11-23T01:30:13.964Z,185.27
2018-11-23T01:32:42.484Z,174.70
2018-11-23T01:35:10.998Z,167.20
2018-11-23T01:37:39.537Z,187.77
2018-11-23T01:40:09.981Z,186.27
2018-11-23T01:42:38.489Z,193.87
2018-11-23T01:45:08.405Z,192.40
2018-11-23T01:47:36.923Z,176.87
2018-11-23T01:50:10.623Z,185.93
2018-11-23T01:52:39.187Z,197.83
2018-11-23T01:55:09.005Z,193.63
2018-11-23T01:57:38.166Z,188.10
2018-11-23T02:00:08.120Z,191.33
2018-11-23T02:02:36.593Z,199.87
2018-11-23T02:05:05.672Z,206.13
2018-11-23T02:07:34.324Z,198.40
2018-11-23T02:10:03.149Z,196.50
2018-11-23T02:12:31.691Z,198.23
2018-11-23T02:15:00.176Z,201.70
2018-11-23T02:17:28.639Z,204.87
2018-11-23T02:19:57.794Z,193.53
2018-11-23T02:22:28.501Z,187.17
2018-11-23T02:24:57.122Z,199.47
2018-11-23T02:27:25.689Z,219.87
2018-11-23T02:29:54.225Z,206.17
2018-11-23T02:32:22.717Z,213.93
2018-11-23T02:34:51.439Z,202.80
2018-11-23T02:37:20.027Z,229.40
2018-11-23T02:39:48.527Z,218.47
2018-11-23T02:42:17.403Z,227.73
2018-11-23T02:44:46.123Z,245.90
2018-11-23T02:47:14.664Z,223.73
2018-11-23T02:49:43.147Z,208.70
2018-11-23T02:52:11.786Z,207.90
2018-11-23T02:54:40.310Z,220.13
2018-11-23T02:57:08.813Z,199.80
2018-11-23T02:59:37.306Z,250.17
2018-11-23T03:02:06.122Z,238.57
2018-11-23T03:04:34.663Z,244.63
2018-11-23T03:07:03.245Z,202.30
2018-11-23T03:09:31.827Z,212.40
2018-11-23T03:12:00.370Z,230.37
2018-11-23T03:14:28.848Z,223.83
2018-11-23T03:16:57.311Z,195.83
2018-11-23T03:19:25.894Z,205.10
2018-11-23T03:21:54.482Z,211.43
2018-11-23T03:24:23.079Z,220.47
2018-11-23T03:26:51.595Z,204.03
2018-11-23T03:29:20.173Z,211.17
2018-11-23T03:31:48.642Z,212.73
2018-11-23T03:34:17.113Z,190.70
2018-11-23T03:36:45.603Z,203.37
2018-11-23T03:39:14.070Z,196.70
2018-11-23T03:41:42.699Z,198.47
2018-11-23T03:44:11.173Z,198.13
2018-11-23T03:46:39.676Z,189.57
2018-11-23T03:49:08.170Z,191.93
2018-11-23T03:51:36.683Z,197.67
2018-11-23T03:54:05.470Z,183.67
2018-11-23T03:56:34.359Z,192.27
2018-11-23T03:59:03.081Z,192.03
2018-11-23T04:01:31.578Z,200.97
2018-11-23T04:04:00.124Z,186.27
2018-11-23T04:06:28.700Z,200.43
2018-11-23T04:08:57.171Z,197.17
2018-11-23T04:11:25.644Z,201.70
2018-11-23T04:13:54.150Z,201.50
2018-11-23T04:16:22.671Z,178.30
2018-11-23T04:18:51.187Z,182.97
2018-11-23T04:21:19.645Z,182.20
2018-11-23T04:23:48.156Z,169.60
2018-11-23T04:26:16.604Z,185.93
2018-11-23T04:28:45.090Z,168.10
2018-11-23T04:31:13.615Z,179.43
2018-11-23T04:33:42.105Z,172.73
2018-11-23T04:36:10.689Z,165.53
2018-11-23T04:38:39.418Z,177.33
2018-11-23T04:41:07.900Z,164.53
2018-11-23T04:43:36.370Z,181.07
2018-11-23T04:46:05.233Z,172.87
2018-11-23T04:48:33.779Z,173.93
2018-11-23T04:51:02.230Z,158.70
2018-11-23T04:53:30.715Z,176.70
2018-11-23T04:55:59.235Z,190.97
2018-11-23T04:58:27.712Z,168.30
2018-11-23T05:00:56.215Z,170.00
2018-11-23T05:03:24.842Z,164.57
2018-11-23T05:05:53.371Z,167.30
2018-11-23T05:08:22.004Z,165.90
2018-11-23T05:10:50.537Z,157.23
2018-11-23T05:13:19.118Z,194.50
2018-11-23T05:15:47.583Z,166.33
2018-11-23T05:18:16.036Z,178.93
2018-11-23T05:20:44.506Z,191.07
2018-11-23T05:23:12.989Z,188.60
2018-11-23T05:25:41.544Z,176.27
2018-11-23T05:28:10.063Z,185.90
2018-11-23T05:30:38.535Z,181.37
2018-11-23T05:33:06.982Z,202.43
2018-11-23T05:35:35.457Z,197.13
2018-11-23T05:38:03.941Z,189.17
2018-11-23T05:40:32.563Z,185.60
2018-11-23T05:43:04.509Z,190.57
2018-11-23T05:45:29.698Z,226.40
2018-11-23T05:47:58.169Z,209.83
2018-11-23T05:50:26.727Z,203.33
2018-11-23T05:52:55.191Z,211.03
2018-11-23T05:55:23.725Z,192.00
2018-11-23T05:57:52.792Z,220.43
2018-11-23T06:00:24.163Z,218.57
2018-11-23T06:02:53.040Z,193.90
2018-11-23T06:05:21.716Z,188.13
2018-11-23T06:07:50.313Z,224.00
2018-11-23T06:10:19.922Z,225.83
2018-11-23T06:12:48.468Z,206.93
2018-11-23T06:15:19.258Z,248.83
2018-11-23T06:17:48.308Z,218.13
2018-11-23T06:20:19.096Z,207.83
2018-11-23T06:22:48.480Z,195.87
2018-11-23T06:25:28.947Z,262.97
2018-11-23T06:27:57.449Z,215.10
2018-11-23T06:30:26.266Z,195.37
2018-11-23T06:33:05.982Z,197.87
2018-11-23T06:35:34.447Z,195.50
2018-11-23T06:38:02.925Z,191.03
2018-11-23T06:40:31.414Z,179.23
2018-11-23T06:42:59.940Z,210.67
2018-11-23T06:45:28.608Z,184.57
2018-11-23T06:47:57.076Z,190.40
2018-11-23T06:50:25.599Z,182.90
2018-11-23T06:52:54.094Z,183.30
2018-11-23T06:55:22.789Z,174.30
2018-11-23T06:57:51.275Z,185.80
2018-11-23T07:00:19.926Z,184.50
2018-11-23T07:02:48.755Z,225.20
2018-11-23T07:05:17.467Z,201.53
2018-11-23T07:07:46.112Z,191.43
2018-11-23T07:10:14.647Z,168.63
2018-11-23T07:12:43.099Z,173.37
2018-11-23T07:15:12.604Z,147.77
2018-11-23T07:17:41.780Z,195.60
2018-11-23T07:20:12.837Z,182.17
2018-11-23T07:22:41.919Z,178.77
2018-11-23T07:25:11.834Z,178.70
2018-11-23T07:27:40.808Z,179.50
2018-11-23T07:30:12.868Z,180.33
2018-11-23T07:32:41.339Z,203.50
2018-11-23T07:35:09.840Z,171.10
2018-11-23T07:37:38.971Z,183.10
2018-11-23T07:40:19.926Z,170.30
2018-11-23T07:42:48.418Z,192.53
2018-11-23T07:45:16.963Z,169.10
2018-11-23T07:47:45.902Z,176.70
2018-11-23T07:50:14.399Z,207.30
2018-11-23T07:52:42.884Z,197.10
2018-11-23T07:55:12.342Z,201.20
2018-11-23T07:57:41.236Z,186.10
2018-11-23T08:00:11.552Z,183.47
2018-11-23T08:02:40.235Z,197.67
2018-11-23T08:05:10.616Z,182.20
2018-11-23T08:07:39.116Z,179.73
2018-11-23T08:10:10.414Z,181.57
2018-11-23T08:12:40.104Z,198.40
2018-11-23T08:15:13.211Z,189.60
2018-11-23T08:17:41.720Z,170.30
2018-11-23T08:20:12.736Z,178.53
2018-11-23T08:22:41.368Z,205.93
2018-11-23T08:25:11.239Z,198.37
2018-11-23T08:27:40.309Z,203.63
2018-11-23T08:30:12.373Z,204.97
2018-11-23T08:32:41.084Z,175.63
2018-11-23T08:35:10.245Z,218.43
2018-11-23T08:37:39.192Z,195.27
2018-11-23T08:40:10.495Z,252.87
2018-11-23T08:42:39.384Z,189.17
2018-11-23T08:45:10.439Z,212.33
2018-11-23T08:47:39.053Z,211.73
2018-11-23T08:50:12.165Z,213.23
2018-11-23T08:52:40.650Z,219.13
2018-11-23T08:55:10.270Z,198.70
2018-11-23T08:57:38.810Z,198.77
2018-11-23T09:00:14.880Z,212.40
2018-11-23T09:02:44.640Z,198.23
2018-11-23T09:05:13.329Z,196.80
2018-11-23T09:07:42.301Z,190.97
2018-11-23T09:10:14.141Z,188.57
2018-11-23T09:12:43.526Z,185.63
2018-11-23T09:15:13.594Z,202.60
2018-11-23T09:17:42.899Z,209.03
2018-11-23T09:20:13.000Z,209.10
2018-11-23T09:22:41.800Z,206.10
2018-11-23T09:25:14.972Z,205.73
2018-11-23T09:27:43.582Z,190.90
2018-11-23T09:30:15.748Z,193.40
2018-11-23T09:32:45.068Z,187.13
2018-11-23T09:35:13.912Z,204.43
2018-11-23T09:37:42.864Z,199.70
2018-11-23T09:40:16.153Z,202.50
2018-11-23T09:42:44.719Z,193.00
2018-11-23T09:45:16.049Z,198.83
2018-11-23T09:47:45.640Z,221.17
2018-11-23T09:50:15.688Z,180.43
2018-11-23T09:52:45.051Z,184.10
2018-11-23T09:55:13.637Z,181.67
2018-11-23T09:57:42.136Z,179.23
2018-11-23T10:00:14.302Z,182.40
2018-11-23T10:02:43.286Z,174.30
2018-11-23T10:05:12.911Z,162.03
2018-11-23T10:07:42.217Z,164.43
2018-11-23T10:10:11.908Z,174.53
2018-11-23T10:12:40.822Z,171.17
2018-11-23T10:15:10.705Z,171.80
2018-11-23T10:17:39.524Z,155.10
2018-11-23T10:20:10.363Z,149.97
2018-11-23T10:22:39.242Z,166.63
2018-11-23T10:25:09.093Z,153.93
2018-11-23T10:27:38.151Z,157.13
2018-11-23T10:30:08.820Z,157.67
2018-11-23T10:32:37.429Z,164.43
2018-11-23T10:35:07.378Z,156.53
2018-11-23T10:37:35.909Z,158.13
2018-11-23T10:40:06.251Z,144.30
2018-11-23T10:42:34.771Z,144.40
2018-11-23T10:45:03.364Z,140.97
2018-11-23T10:47:31.839Z,160.33
2018-11-23T10:50:00.299Z,149.47
2018-11-23T10:52:28.799Z,162.10
2018-11-23T10:54:57.284Z,146.87
2018-11-23T10:57:26.945Z,143.57
2018-11-23T10:59:55.532Z,150.87
2018-11-23T11:02:29.212Z,147.77
2018-11-23T11:05:02.985Z,140.77
2018-11-23T11:07:31.471Z,140.37
2018-11-23T11:10:00.017Z,135.60
2018-11-23T11:12:28.591Z,127.13
2018-11-23T11:14:57.060Z,132.83
2018-11-23T11:17:25.590Z,153.03
2018-11-23T11:19:54.267Z,152.33
2018-11-23T11:22:23.652Z,160.67
2018-11-23T11:24:52.164Z,142.53
2018-11-23T11:27:20.895Z,142.70
2018-11-23T11:29:49.412Z,140.37
2018-11-23T11:32:17.963Z,143.73
2018-11-23T11:34:46.875Z,155.30
2018-11-23T11:37:15.372Z,142.57
2018-11-23T11:39:44.062Z,146.20
2018-11-23T11:42:12.643Z,159.10
2018-11-23T11:44:41.102Z,168.97
2018-11-23T11:47:09.707Z,165.93
2018-11-23T11:49:38.188Z,186.20
2018-11-23T11:52:06.714Z,164.97
2018-11-23T11:54:35.211Z,172.10
2018-11-23T11:57:03.978Z,179.93
2018-11-23T11:59:32.514Z,169.43
2018-11-23T12:02:00.984Z,174.23
2018-11-23T12:04:29.532Z,182.97
2018-11-23T12:06:58.279Z,185.33
2018-11-23T12:09:26.956Z,165.60
2018-11-23T12:11:55.539Z,189.00
2018-11-23T12:14:24.050Z,164.97
2018-11-23T12:16:54.750Z,183.50
2018-11-23T12:19:23.275Z,191.83
2018-11-23T12:21:51.741Z,183.20
2018-11-23T12:24:20.285Z,179.33
2018-11-23T12:26:48.903Z,191.40
2018-11-23T12:29:17.384Z,186.37
2018-11-23T12:31:47.159Z,181.03
2018-11-23T12:34:16.631Z,178.87
2018-11-23T12:36:46.169Z,181.20
2018-11-23T12:42:08.342Z,193.07
2018-11-23T12:44:46.326Z,179.83
2018-11-23T12:47:25.641Z,185.57
2018-11-23T12:49:54.223Z,183.03
2018-11-23T12:52:22.715Z,170.63
2018-11-23T12:54:51.222Z,171.93
2018-11-23T12:57:19.710Z,184.37
2018-11-23T12:59:48.211Z,171.47
2018-11-23T13:02:16.876Z,171.47
2018-11-23T13:04:45.428Z,171.27
2018-11-23T13:07:13.925Z,172.83
2018-11-23T13:09:42.593Z,164.23
2018-11-23T13:12:11.035Z,154.50
2018-11-23T13:14:39.491Z,161.70
2018-11-23T13:17:08.323Z,159.50
2018-11-23T13:19:36.799Z,170.00
2018-11-23T13:22:05.470Z,171.60
2018-11-23T13:24:34.762Z,188.00
2018-11-23T13:27:03.219Z,172.73
2018-11-23T13:29:31.799Z,185.43
2018-11-23T13:32:00.298Z,176.63
2018-11-23T13:34:28.816Z,180.97
2018-11-23T13:36:57.283Z,185.63
2018-11-23T13:39:25.769Z,177.43
2018-11-23T13:41:54.318Z,171.40
2018-11-23T13:44:22.985Z,153.87
2018-11-23T13:46:51.571Z,160.83
2018-11-23T13:49:20.044Z,157.13
2018-11-23T13:51:48.504Z,155.93
2018-11-23T13:54:17.088Z,167.43
2018-11-23T13:56:45.686Z,153.73
2018-11-23T13:59:14.153Z,154.90
2018-11-23T14:01:42.660Z,151.43
2018-11-23T14:04:11.873Z,156.50
2018-11-23T14:06:40.491Z,150.57
2018-11-23T14:09:10.968Z,154.00
2018-11-23T14:11:40.778Z,151.90
2018-11-23T14:14:10.692Z,158.70
2018-11-23T14:16:39.173Z,151.03
2018-11-23T14:19:07.637Z,158.70
2018-11-23T14:21:36.105Z,172.87
2018-11-23T14:24:05.202Z,160.73
2018-11-23T14:26:33.735Z,170.63
2018-11-23T14:29:02.350Z,164.43
2018-11-23T14:31:30.812Z,163.43
2018-11-23T14:33:59.351Z,174.57
2018-11-23T14:36:27.829Z,177.63
2018-11-23T14:38:56.380Z,169.07
2018-11-23T14:41:24.854Z,181.70
2018-11-23T14:43:53.926Z,187.03
2018-11-23T14:46:22.643Z,176.63
2018-11-23T14:48:51.155Z,191.77
2018-11-23T14:51:20.348Z,186.10
2018-11-23T14:53:49.242Z,217.80
2018-11-23T14:56:17.727Z,215.23
2018-11-23T14:58:46.226Z,196.17
2018-11-23T15:01:14.779Z,242.27
2018-11-23T15:03:43.346Z,215.93
2018-11-23T15:06:11.896Z,203.07
2018-11-23T15:08:40.335Z,212.97
2018-11-23T15:11:08.855Z,200.70
2018-11-23T15:13:38.730Z,201.97
2018-11-23T15:16:07.235Z,205.63
2018-11-23T15:18:35.774Z,217.93
2018-11-23T15:21:26.904Z,242.63
2018-11-23T15:23:55.426Z,213.50
2018-11-23T15:26:23.942Z,221.43
2018-11-23T15:28:53.571Z,300.27
2018-11-23T15:31:22.032Z,270.27
2018-11-23T15:33:50.563Z,265.20
2018-11-23T15:36:19.369Z,284.40
2018-11-23T15:38:47.884Z,270.40
2018-11-23T15:41:16.418Z,276.87
2018-11-23T15:43:44.890Z,267.80
2018-11-23T15:46:13.382Z,296.80
2018-11-23T15:48:41.846Z,304.77
2018-11-23T15:51:11.172Z,254.23
2018-11-23T15:53:39.669Z,295.77
2018-11-23T15:56:08.179Z,345.07
2018-11-23T15:58:36.870Z,295.10
2018-11-23T16:01:05.772Z,398.33
2018-11-23T16:03:34.408Z,420.33
2018-11-23T16:06:02.952Z,295.50
2018-11-23T16:08:31.507Z,326.23
2018-11-23T16:11:00.182Z,346.00
2018-11-23T16:13:28.689Z,333.63
2018-11-23T16:15:57.699Z,369.80
2018-11-23T16:18:26.217Z,350.33
2018-11-23T16:20:54.698Z,350.73
2018-11-23T16:23:23.196Z,312.93
2018-11-23T16:25:52.382Z,359.80
2018-11-23T16:28:20.855Z,316.77
2018-11-23T16:30:50.626Z,382.23
2018-11-23T16:33:20.536Z,323.50
2018-11-23T16:36:16.331Z,326.23
2018-11-23T16:38:44.812Z,341.20
2018-11-23T16:41:13.357Z,357.07
2018-11-23T16:43:41.812Z,396.10
2018-11-23T16:49:45.813Z,487.63
2018-11-23T16:52:14.393Z,449.43
2018-11-23T16:54:42.907Z,500.83
2018-11-23T16:57:11.416Z,589.30
2018-11-23T16:59:39.909Z,459.47
2018-11-23T17:02:09.261Z,504.17
2018-11-23T17:04:38.631Z,479.33
2018-11-23T17:07:13.009Z,514.37
2018-11-23T17:09:37.046Z,581.20
2018-11-23T17:12:05.803Z,524.33
2018-11-23T17:14:34.362Z,482.43
2018-11-23T17:17:02.820Z,558.63
2018-11-23T17:19:44.606Z,453.17
2018-11-23T17:22:13.131Z,355.03
2018-11-23T17:24:41.587Z,347.60
2018-11-23T17:27:10.188Z,347.00
2018-11-23T17:29:38.652Z,445.17
2018-11-23T17:32:07.146Z,436.33
2018-11-23T17:34:35.607Z,523.60
2018-11-23T17:37:04.458Z,412.43
2018-11-23T17:39:33.087Z,348.03
2018-11-23T17:42:01.534Z,345.13
2018-11-23T17:44:31.907Z,327.60
2018-11-23T17:47:00.539Z,344.53
2018-11-23T17:49:29.410Z,358.20
2018-11-23T17:51:58.960Z,333.60
2018-11-23T17:54:27.652Z,346.97
2018-11-23T17:56:56.196Z,410.37
2018-11-23T17:59:24.844Z,521.93
2018-11-23T18:01:53.395Z,354.00
2018-11-23T18:04:21.873Z,364.53
2018-11-23T18:06:50.375Z,562.27
2018-11-23T18:09:18.888Z,328.17
2018-11-23T18:11:47.360Z,445.87
2018-11-23T18:14:15.855Z,497.83
2018-11-23T18:16:44.340Z,335.30
2018-11-23T18:19:12.862Z,361.30
2018-11-23T18:21:41.329Z,555.77
2018-11-23T18:24:09.863Z,318.90
2018-11-23T18:26:38.392Z,314.73
2018-11-23T18:29:06.902Z,447.73
2018-11-23T18:31:35.371Z,443.53
2018-11-23T18:34:03.841Z,385.20
2018-11-23T18:36:32.527Z,290.23
2018-11-23T18:39:01.062Z,617.13
2018-11-23T18:41:30.097Z,521.23
2018-11-23T18:43:58.747Z,322.33
2018-11-23T18:46:27.198Z,328.00
2018-11-23T18:48:55.774Z,318.83
2018-11-23T18:51:24.258Z,589.13
2018-11-23T18:53:52.939Z,583.07
2018-11-23T18:56:21.418Z,376.40
2018-11-23T18:58:49.881Z,293.97
2018-11-23T19:01:18.410Z,335.23
2018-11-23T19:03:46.995Z,396.73
2018-11-23T19:06:15.550Z,416.23
2018-11-23T19:08:44.038Z,480.37
2018-11-23T19:11:12.511Z,570.83
2018-11-23T19:13:41.392Z,524.10
2018-11-23T19:16:09.865Z,430.27
2018-11-23T19:18:38.491Z,575.73
2018-11-23T19:21:07.129Z,648.17
2018-11-23T19:23:35.742Z,374.07
2018-11-23T19:26:05.503Z,345.80
2018-11-23T19:28:33.975Z,644.87
2018-11-23T19:31:02.482Z,602.73
2018-11-23T19:33:30.940Z,608.17
2018-11-23T19:35:59.520Z,599.63
2018-11-23T19:38:27.998Z,409.10
2018-11-23T19:40:56.470Z,466.23
2018-11-23T19:43:24.989Z,610.20
2018-11-23T19:45:53.500Z,483.63
2018-11-23T19:48:22.008Z,506.20
2018-11-23T19:50:51.420Z,457.80
2018-11-23T19:53:19.960Z,361.17
2018-11-23T19:55:48.480Z,444.13
2018-11-23T19:58:17.107Z,468.13
2018-11-23T20:00:45.563Z,347.73
2018-11-23T20:03:14.088Z,632.90
2018-11-23T20:05:42.595Z,378.00
2018-11-23T20:08:11.068Z,350.43
2018-11-23T20:10:39.623Z,549.77
2018-11-23T20:13:08.183Z,461.27
2018-11-23T20:15:36.681Z,462.93
2018-11-23T20:18:05.877Z,326.57
2018-11-23T20:20:34.374Z,342.57
2018-11-23T20:23:02.882Z,352.30
2018-11-23T20:25:32.024Z,462.77
2018-11-23T20:28:00.603Z,326.27
2018-11-23T20:30:29.112Z,390.33
2018-11-23T20:32:57.669Z,499.27
2018-11-23T20:35:26.111Z,430.40
2018-11-23T20:37:54.645Z,319.33
2018-11-23T20:40:23.737Z,448.73
2018-11-23T20:42:52.612Z,539.87
2018-11-23T20:45:21.234Z,332.60
2018-11-23T20:47:49.952Z,349.43
2018-11-23T20:50:19.115Z,461.43
2018-11-23T20:52:47.796Z,569.53
2018-11-23T20:55:18.657Z,316.80
2018-11-23T20:57:47.161Z,490.40
2018-11-23T21:00:17.679Z,334.90
2018-11-23T21:02:47.186Z,412.00
2018-11-23T21:05:17.248Z,586.00
2018-11-23T21:07:45.951Z,316.17
2018-11-23T21:10:20.374Z,477.97
2018-11-23T21:12:46.832Z,441.80
2018-11-23T21:15:17.876Z,329.20
2018-11-23T21:17:46.873Z,382.07
2018-11-23T21:20:15.813Z,488.10
2018-11-23T21:22:44.378Z,283.13
2018-11-23T21:25:13.312Z,366.57
2018-11-23T21:27:41.958Z,367.77
2018-11-23T21:30:21.628Z,285.43
2018-11-23T21:32:50.966Z,483.93
2018-11-23T21:35:19.669Z,386.97
2018-11-23T21:37:48.863Z,373.97
2018-11-23T21:40:17.956Z,309.57
2018-11-23T21:42:47.002Z,430.40
2018-11-23T21:45:17.680Z,278.10
2018-11-23T21:47:46.319Z,282.40
2018-11-23T21:50:24.607Z,448.73
2018-11-23T21:52:45.838Z,409.73
2018-11-23T21:55:18.605Z,275.73
2018-11-23T21:57:47.194Z,360.33
2018-11-23T22:00:16.524Z,370.80
2018-11-23T22:02:45.171Z,257.03
2018-11-23T22:05:14.004Z,308.60
2018-11-23T22:07:42.808Z,338.13
2018-11-23T22:10:20.810Z,442.67
2018-11-23T22:12:49.463Z,479.10
2018-11-23T22:15:21.208Z,385.00
2018-11-23T22:17:50.719Z,509.43
2018-11-23T22:20:20.656Z,320.27
2018-11-23T22:22:49.269Z,439.10
2018-11-23T22:25:19.108Z,348.97
2018-11-23T22:27:47.912Z,319.07
2018-11-23T22:30:21.602Z,323.70
2018-11-23T22:32:50.303Z,446.90
2018-11-23T22:35:19.010Z,308.17
2018-11-23T22:37:47.573Z,291.27
2018-11-23T22:40:18.150Z,294.37
2018-11-23T22:42:47.831Z,412.10
2018-11-23T22:45:17.451Z,302.60
2018-11-23T22:47:46.024Z,236.80
2018-11-23T22:50:16.871Z,302.93
2018-11-23T22:52:45.381Z,370.17
2018-11-23T22:55:14.618Z,263.23
2018-11-23T22:57:43.126Z,341.67
2018-11-23T23:00:22.907Z,275.60
2018-11-23T23:02:51.429Z,377.20
2018-11-23T23:05:21.307Z,258.83
2018-11-23T23:07:50.130Z,293.43
2018-11-23T23:10:18.978Z,277.37
2018-11-23T23:12:48.122Z,297.00
2018-11-23T23:15:17.400Z,424.43
2018-11-23T23:17:46.169Z,360.13
2018-11-23T23:20:16.232Z,300.93
2018-11-23T23:22:44.731Z,315.77
2018-11-23T23:25:13.603Z,251.17
2018-11-23T23:27:42.127Z,259.23
2018-11-23T23:30:12.451Z,311.37
2018-11-23T23:32:41.160Z,335.13
2018-11-23T23:35:12.728Z,375.00
2018-11-23T23:37:41.991Z,260.03
2018-11-23T23:40:16.639Z,245.47
2018-11-23T23:42:45.732Z,253.07
2018-11-23T23:45:17.083Z,289.77
2018-11-23T23:47:45.808Z,353.80
2018-11-23T23:50:15.816Z,450.70
2018-11-23T23:52:44.462Z,269.77
2018-11-23T23:55:13.004Z,219.30
2018-11-23T23:57:42.892Z,372.37
